sensor_id;sensor_type;location;lat;lon;timestamp;P1;durP1;ratioP1;P2;durP2;ratioP2
15102;SDS011;7652;53.584;9.998;2024-02-14T00:00:04;4.70;;;2.00;;
15102;SDS011;7652;53.584;9.998;2024-02-14T00:03:26;4.33;;;2.00;;
15102;SDS011;7652;53.584;9.998;2024-02-14T00:06:47;4.67;;;2.43;;
15102;SDS011;7652;53.584;9.998;2024-02-14T00:10:10;7.23;;;2.20;;
15102;SDS011;7652;53.584;9.998;2024-02-14T00:13:32;2.20;;;2.00;;
15102;SDS011;7652;53.584;9.998;2024-02-14T00:16:53;3.77;;;2.03;;
15102;SDS011;7652;53.584;9.998;2024-02-14T00:20:16;3.23;;;1.70;;
15102;SDS011;7652;53.584;9.998;2024-02-14T00:23:38;4.50;;;1.93;;
15102;SDS011;7652;53.584;9.998;2024-02-14T00:27:01;5.13;;;2.30;;
15102;SDS011;7652;53.584;9.998;2024-02-14T00:30:23;3.20;;;2.07;;
15102;SDS011;7652;53.584;9.998;2024-02-14T00:33:49;5.07;;;2.63;;
15102;SDS011;7652;53.584;9.998;2024-02-14T00:37:10;3.60;;;1.63;;
15102;SDS011;7652;53.584;9.998;2024-02-14T00:40:32;5.87;;;1.77;;
15102;SDS011;7652;53.584;9.998;2024-02-14T00:43:55;6.00;;;2.37;;
15102;SDS011;7652;53.584;9.998;2024-02-14T00:47:16;4.73;;;2.10;;
15102;SDS011;7652;53.584;9.998;2024-02-14T00:50:38;4.00;;;1.83;;
15102;SDS011;7652;53.584;9.998;2024-02-14T00:53:59;4.53;;;1.73;;
15102;SDS011;7652;53.584;9.998;2024-02-14T00:57:21;3.60;;;1.93;;
15102;SDS011;7652;53.584;9.998;2024-02-14T01:00:47;3.67;;;1.70;;
15102;SDS011;7652;53.584;9.998;2024-02-14T01:04:09;3.93;;;2.03;;
15102;SDS011;7652;53.584;9.998;2024-02-14T01:07:30;4.00;;;2.07;;
15102;SDS011;7652;53.584;9.998;2024-02-14T01:10:52;3.37;;;2.03;;
15102;SDS011;7652;53.584;9.998;2024-02-14T01:14:13;3.33;;;2.07;;
15102;SDS011;7652;53.584;9.998;2024-02-14T01:17:36;3.83;;;2.23;;
15102;SDS011;7652;53.584;9.998;2024-02-14T01:20:58;4.47;;;2.13;;
15102;SDS011;7652;53.584;9.998;2024-02-14T01:24:21;3.87;;;1.97;;
15102;SDS011;7652;53.584;9.998;2024-02-14T01:27:46;5.97;;;2.10;;
15102;SDS011;7652;53.584;9.998;2024-02-14T01:31:08;2.90;;;1.70;;
15102;SDS011;7652;53.584;9.998;2024-02-14T01:34:33;3.20;;;1.90;;
15102;SDS011;7652;53.584;9.998;2024-02-14T01:37:55;2.53;;;1.67;;
15102;SDS011;7652;53.584;9.998;2024-02-14T01:41:17;4.60;;;1.70;;
15102;SDS011;7652;53.584;9.998;2024-02-14T01:44:38;3.47;;;2.20;;
15102;SDS011;7652;53.584;9.998;2024-02-14T01:48:00;2.50;;;1.97;;
15102;SDS011;7652;53.584;9.998;2024-02-14T01:51:23;3.77;;;1.83;;
15102;SDS011;7652;53.584;9.998;2024-02-14T01:54:46;3.97;;;2.03;;
15102;SDS011;7652;53.584;9.998;2024-02-14T01:58:08;3.37;;;1.93;;
15102;SDS011;7652;53.584;9.998;2024-02-14T02:01:30;4.53;;;2.27;;
15102;SDS011;7652;53.584;9.998;2024-02-14T02:04:53;6.40;;;3.23;;
15102;SDS011;7652;53.584;9.998;2024-02-14T02:08:16;3.07;;;2.10;;
15102;SDS011;7652;53.584;9.998;2024-02-14T02:11:48;5.23;;;2.13;;
15102;SDS011;7652;53.584;9.998;2024-02-14T02:15:10;4.63;;;2.50;;
15102;SDS011;7652;53.584;9.998;2024-02-14T02:18:33;5.43;;;2.60;;
15102;SDS011;7652;53.584;9.998;2024-02-14T02:21:55;3.30;;;2.30;;
15102;SDS011;7652;53.584;9.998;2024-02-14T02:25:18;5.07;;;2.60;;
15102;SDS011;7652;53.584;9.998;2024-02-14T02:28:43;6.30;;;2.50;;
15102;SDS011;7652;53.584;9.998;2024-02-14T02:32:06;3.03;;;2.43;;
15102;SDS011;7652;53.584;9.998;2024-02-14T02:35:30;5.53;;;2.50;;
15102;SDS011;7652;53.584;9.998;2024-02-14T02:38:51;4.37;;;2.57;;
15102;SDS011;7652;53.584;9.998;2024-02-14T02:42:14;4.23;;;2.73;;
15102;SDS011;7652;53.584;9.998;2024-02-14T02:45:36;5.40;;;2.87;;
15102;SDS011;7652;53.584;9.998;2024-02-14T02:48:58;4.03;;;2.57;;
15102;SDS011;7652;53.584;9.998;2024-02-14T02:52:20;3.60;;;2.73;;
15102;SDS011;7652;53.584;9.998;2024-02-14T02:55:42;3.67;;;3.30;;
15102;SDS011;7652;53.584;9.998;2024-02-14T02:59:05;3.93;;;2.77;;
15102;SDS011;7652;53.584;9.998;2024-02-14T03:02:26;5.10;;;3.33;;
15102;SDS011;7652;53.584;9.998;2024-02-14T03:05:47;5.47;;;3.27;;
15102;SDS011;7652;53.584;9.998;2024-02-14T03:09:09;4.73;;;2.90;;
15102;SDS011;7652;53.584;9.998;2024-02-14T03:12:32;4.10;;;2.80;;
15102;SDS011;7652;53.584;9.998;2024-02-14T03:15:56;4.80;;;3.10;;
15102;SDS011;7652;53.584;9.998;2024-02-14T03:19:18;4.27;;;3.03;;
15102;SDS011;7652;53.584;9.998;2024-02-14T03:22:42;6.47;;;3.67;;
15102;SDS011;7652;53.584;9.998;2024-02-14T03:26:04;7.13;;;3.60;;
15102;SDS011;7652;53.584;9.998;2024-02-14T03:29:27;6.43;;;3.03;;
15102;SDS011;7652;53.584;9.998;2024-02-14T03:32:50;5.67;;;3.20;;
15102;SDS011;7652;53.584;9.998;2024-02-14T03:36:13;4.17;;;3.30;;
15102;SDS011;7652;53.584;9.998;2024-02-14T03:39:34;4.30;;;3.30;;
15102;SDS011;7652;53.584;9.998;2024-02-14T03:42:56;5.47;;;3.57;;
15102;SDS011;7652;53.584;9.998;2024-02-14T03:46:18;3.87;;;3.00;;
15102;SDS011;7652;53.584;9.998;2024-02-14T03:49:42;7.17;;;3.73;;
15102;SDS011;7652;53.584;9.998;2024-02-14T03:53:04;3.83;;;3.37;;
15102;SDS011;7652;53.584;9.998;2024-02-14T03:56:25;4.97;;;4.00;;
15102;SDS011;7652;53.584;9.998;2024-02-14T03:59:46;5.97;;;3.07;;
15102;SDS011;7652;53.584;9.998;2024-02-14T04:03:08;4.37;;;2.93;;
15102;SDS011;7652;53.584;9.998;2024-02-14T04:06:34;5.40;;;3.30;;
15102;SDS011;7652;53.584;9.998;2024-02-14T04:09:56;8.33;;;3.43;;
15102;SDS011;7652;53.584;9.998;2024-02-14T04:13:18;6.37;;;3.43;;
15102;SDS011;7652;53.584;9.998;2024-02-14T04:16:40;6.40;;;3.10;;
15102;SDS011;7652;53.584;9.998;2024-02-14T04:20:02;7.30;;;3.63;;
15102;SDS011;7652;53.584;9.998;2024-02-14T04:23:25;8.50;;;3.97;;
15102;SDS011;7652;53.584;9.998;2024-02-14T04:26:47;5.40;;;3.20;;
15102;SDS011;7652;53.584;9.998;2024-02-14T04:30:10;4.80;;;3.30;;
15102;SDS011;7652;53.584;9.998;2024-02-14T04:33:32;5.73;;;3.53;;
15102;SDS011;7652;53.584;9.998;2024-02-14T04:36:54;6.50;;;3.87;;
15102;SDS011;7652;53.584;9.998;2024-02-14T04:40:17;7.23;;;3.63;;
15102;SDS011;7652;53.584;9.998;2024-02-14T04:43:39;4.57;;;3.70;;
15102;SDS011;7652;53.584;9.998;2024-02-14T04:47:00;5.37;;;3.97;;
15102;SDS011;7652;53.584;9.998;2024-02-14T04:50:22;4.27;;;3.40;;
15102;SDS011;7652;53.584;9.998;2024-02-14T04:53:43;5.80;;;4.10;;
15102;SDS011;7652;53.584;9.998;2024-02-14T04:57:06;5.57;;;3.93;;
15102;SDS011;7652;53.584;9.998;2024-02-14T05:00:27;5.73;;;4.93;;
15102;SDS011;7652;53.584;9.998;2024-02-14T05:03:49;5.47;;;4.17;;
15102;SDS011;7652;53.584;9.998;2024-02-14T05:07:10;5.83;;;3.90;;
15102;SDS011;7652;53.584;9.998;2024-02-14T05:10:32;6.20;;;4.33;;
15102;SDS011;7652;53.584;9.998;2024-02-14T05:13:55;5.27;;;4.20;;
15102;SDS011;7652;53.584;9.998;2024-02-14T05:17:17;6.27;;;4.03;;
15102;SDS011;7652;53.584;9.998;2024-02-14T05:20:39;4.70;;;4.03;;
15102;SDS011;7652;53.584;9.998;2024-02-14T05:24:01;7.67;;;4.90;;
15102;SDS011;7652;53.584;9.998;2024-02-14T05:27:23;5.80;;;4.47;;
15102;SDS011;7652;53.584;9.998;2024-02-14T05:30:46;5.90;;;4.70;;
15102;SDS011;7652;53.584;9.998;2024-02-14T05:34:07;8.00;;;4.63;;
15102;SDS011;7652;53.584;9.998;2024-02-14T05:37:30;8.63;;;5.43;;
15102;SDS011;7652;53.584;9.998;2024-02-14T05:40:53;6.83;;;5.17;;
15102;SDS011;7652;53.584;9.998;2024-02-14T05:44:15;8.73;;;5.07;;
15102;SDS011;7652;53.584;9.998;2024-02-14T05:47:38;7.27;;;5.90;;
15102;SDS011;7652;53.584;9.998;2024-02-14T05:51:00;9.17;;;5.97;;
15102;SDS011;7652;53.584;9.998;2024-02-14T05:54:21;8.33;;;5.30;;
15102;SDS011;7652;53.584;9.998;2024-02-14T05:57:43;7.73;;;5.70;;
15102;SDS011;7652;53.584;9.998;2024-02-14T06:01:04;5.97;;;5.17;;
15102;SDS011;7652;53.584;9.998;2024-02-14T06:04:27;6.60;;;5.87;;
15102;SDS011;7652;53.584;9.998;2024-02-14T06:07:49;7.33;;;5.47;;
15102;SDS011;7652;53.584;9.998;2024-02-14T06:11:11;7.43;;;5.60;;
15102;SDS011;7652;53.584;9.998;2024-02-14T06:14:34;8.30;;;6.97;;
15102;SDS011;7652;53.584;9.998;2024-02-14T06:17:57;8.07;;;6.50;;
15102;SDS011;7652;53.584;9.998;2024-02-14T06:21:19;9.97;;;6.67;;
15102;SDS011;7652;53.584;9.998;2024-02-14T06:24:41;10.07;;;7.00;;
15102;SDS011;7652;53.584;9.998;2024-02-14T06:28:03;7.77;;;6.93;;
15102;SDS011;7652;53.584;9.998;2024-02-14T06:31:25;8.37;;;6.77;;
15102;SDS011;7652;53.584;9.998;2024-02-14T06:34:46;10.07;;;7.13;;
15102;SDS011;7652;53.584;9.998;2024-02-14T06:38:10;9.13;;;7.40;;
15102;SDS011;7652;53.584;9.998;2024-02-14T06:41:31;10.23;;;7.67;;
15102;SDS011;7652;53.584;9.998;2024-02-14T06:44:52;7.53;;;6.13;;
15102;SDS011;7652;53.584;9.998;2024-02-14T06:48:14;8.10;;;6.30;;
15102;SDS011;7652;53.584;9.998;2024-02-14T06:51:36;7.93;;;6.33;;
15102;SDS011;7652;53.584;9.998;2024-02-14T06:54:58;9.60;;;6.53;;
15102;SDS011;7652;53.584;9.998;2024-02-14T06:58:20;7.27;;;6.57;;
15102;SDS011;7652;53.584;9.998;2024-02-14T07:01:42;10.83;;;5.70;;
15102;SDS011;7652;53.584;9.998;2024-02-14T07:05:04;8.40;;;6.20;;
15102;SDS011;7652;53.584;9.998;2024-02-14T07:08:27;11.67;;;6.37;;
15102;SDS011;7652;53.584;9.998;2024-02-14T07:11:50;7.53;;;5.77;;
15102;SDS011;7652;53.584;9.998;2024-02-14T07:15:13;11.90;;;6.43;;
15102;SDS011;7652;53.584;9.998;2024-02-14T07:18:34;8.70;;;6.20;;
15102;SDS011;7652;53.584;9.998;2024-02-14T07:21:56;9.93;;;6.67;;
15102;SDS011;7652;53.584;9.998;2024-02-14T07:25:18;9.40;;;6.67;;
15102;SDS011;7652;53.584;9.998;2024-02-14T07:28:41;10.57;;;6.40;;
15102;SDS011;7652;53.584;9.998;2024-02-14T07:32:02;7.20;;;6.50;;
15102;SDS011;7652;53.584;9.998;2024-02-14T07:35:24;12.70;;;6.80;;
15102;SDS011;7652;53.584;9.998;2024-02-14T07:38:45;8.93;;;6.97;;
15102;SDS011;7652;53.584;9.998;2024-02-14T07:42:07;10.37;;;6.63;;
15102;SDS011;7652;53.584;9.998;2024-02-14T07:45:30;8.77;;;6.87;;
15102;SDS011;7652;53.584;9.998;2024-02-14T07:48:51;8.77;;;6.70;;
15102;SDS011;7652;53.584;9.998;2024-02-14T07:52:13;7.70;;;6.83;;
15102;SDS011;7652;53.584;9.998;2024-02-14T07:55:35;10.00;;;7.20;;
15102;SDS011;7652;53.584;9.998;2024-02-14T07:58:56;10.60;;;6.80;;
15102;SDS011;7652;53.584;9.998;2024-02-14T08:02:21;7.07;;;6.37;;
15102;SDS011;7652;53.584;9.998;2024-02-14T08:05:43;10.37;;;6.77;;
15102;SDS011;7652;53.584;9.998;2024-02-14T08:09:04;10.00;;;6.47;;
15102;SDS011;7652;53.584;9.998;2024-02-14T08:12:29;7.73;;;6.93;;
15102;SDS011;7652;53.584;9.998;2024-02-14T08:15:52;9.27;;;6.80;;
15102;SDS011;7652;53.584;9.998;2024-02-14T08:19:14;9.17;;;7.17;;
15102;SDS011;7652;53.584;9.998;2024-02-14T08:22:37;7.83;;;6.33;;
15102;SDS011;7652;53.584;9.998;2024-02-14T08:25:59;10.27;;;6.60;;
15102;SDS011;7652;53.584;9.998;2024-02-14T08:29:20;7.57;;;6.77;;
15102;SDS011;7652;53.584;9.998;2024-02-14T08:32:42;10.33;;;7.53;;
15102;SDS011;7652;53.584;9.998;2024-02-14T08:36:06;8.27;;;6.53;;
15102;SDS011;7652;53.584;9.998;2024-02-14T08:39:28;8.07;;;6.70;;
15102;SDS011;7652;53.584;9.998;2024-02-14T08:42:49;7.30;;;5.90;;
15102;SDS011;7652;53.584;9.998;2024-02-14T08:46:11;8.07;;;6.13;;
15102;SDS011;7652;53.584;9.998;2024-02-14T08:49:32;10.70;;;5.50;;
15102;SDS011;7652;53.584;9.998;2024-02-14T08:52:55;6.07;;;5.07;;
15102;SDS011;7652;53.584;9.998;2024-02-14T08:56:17;6.73;;;5.57;;
15102;SDS011;7652;53.584;9.998;2024-02-14T08:59:38;4.93;;;4.37;;
15102;SDS011;7652;53.584;9.998;2024-02-14T09:03:03;5.07;;;4.20;;
15102;SDS011;7652;53.584;9.998;2024-02-14T09:06:25;4.83;;;4.33;;
15102;SDS011;7652;53.584;9.998;2024-02-14T09:09:48;4.80;;;4.40;;
15102;SDS011;7652;53.584;9.998;2024-02-14T09:13:09;4.90;;;4.30;;
15102;SDS011;7652;53.584;9.998;2024-02-14T09:16:31;6.47;;;4.40;;
15102;SDS011;7652;53.584;9.998;2024-02-14T09:19:53;6.53;;;4.53;;
15102;SDS011;7652;53.584;9.998;2024-02-14T09:23:15;6.20;;;4.97;;
15102;SDS011;7652;53.584;9.998;2024-02-14T09:26:41;5.57;;;5.00;;
15102;SDS011;7652;53.584;9.998;2024-02-14T09:30:03;6.37;;;5.00;;
15102;SDS011;7652;53.584;9.998;2024-02-14T09:33:27;5.67;;;5.10;;
15102;SDS011;7652;53.584;9.998;2024-02-14T09:36:49;7.50;;;5.77;;
15102;SDS011;7652;53.584;9.998;2024-02-14T09:40:10;6.53;;;5.20;;
15102;SDS011;7652;53.584;9.998;2024-02-14T09:43:36;5.97;;;5.37;;
15102;SDS011;7652;53.584;9.998;2024-02-14T09:47:00;7.40;;;5.23;;
15102;SDS011;7652;53.584;9.998;2024-02-14T09:50:24;5.97;;;5.37;;
15102;SDS011;7652;53.584;9.998;2024-02-14T09:53:47;4.97;;;4.40;;
15102;SDS011;7652;53.584;9.998;2024-02-14T09:57:09;5.17;;;4.67;;
15102;SDS011;7652;53.584;9.998;2024-02-14T10:00:35;5.37;;;4.87;;
15102;SDS011;7652;53.584;9.998;2024-02-14T10:03:57;7.53;;;4.80;;
15102;SDS011;7652;53.584;9.998;2024-02-14T10:07:18;5.50;;;4.90;;
15102;SDS011;7652;53.584;9.998;2024-02-14T10:10:40;5.07;;;4.67;;
15102;SDS011;7652;53.584;9.998;2024-02-14T10:14:01;5.17;;;4.23;;
15102;SDS011;7652;53.584;9.998;2024-02-14T10:17:26;3.87;;;3.57;;
15102;SDS011;7652;53.584;9.998;2024-02-14T10:20:54;4.33;;;3.40;;
15102;SDS011;7652;53.584;9.998;2024-02-14T10:24:17;3.87;;;2.77;;
15102;SDS011;7652;53.584;9.998;2024-02-14T10:27:40;4.53;;;3.00;;
15102;SDS011;7652;53.584;9.998;2024-02-14T10:31:02;3.17;;;2.90;;
15102;SDS011;7652;53.584;9.998;2024-02-14T10:34:27;3.30;;;2.80;;
15102;SDS011;7652;53.584;9.998;2024-02-14T10:37:51;2.97;;;2.77;;
15102;SDS011;7652;53.584;9.998;2024-02-14T10:41:20;3.50;;;3.20;;
15102;SDS011;7652;53.584;9.998;2024-02-14T10:44:42;3.43;;;3.13;;
15102;SDS011;7652;53.584;9.998;2024-02-14T10:48:05;3.30;;;3.10;;
15102;SDS011;7652;53.584;9.998;2024-02-14T10:51:30;3.70;;;2.87;;
15102;SDS011;7652;53.584;9.998;2024-02-14T10:54:55;2.90;;;2.70;;
15102;SDS011;7652;53.584;9.998;2024-02-14T10:58:17;4.67;;;3.07;;
15102;SDS011;7652;53.584;9.998;2024-02-14T11:01:39;3.13;;;2.90;;
15102;SDS011;7652;53.584;9.998;2024-02-14T11:05:02;2.50;;;2.30;;
15102;SDS011;7652;53.584;9.998;2024-02-14T11:08:25;2.77;;;2.57;;
15102;SDS011;7652;53.584;9.998;2024-02-14T11:11:58;3.03;;;2.83;;
15102;SDS011;7652;53.584;9.998;2024-02-14T11:15:21;3.10;;;2.80;;
15102;SDS011;7652;53.584;9.998;2024-02-14T11:18:45;3.37;;;3.07;;
15102;SDS011;7652;53.584;9.998;2024-02-14T11:22:10;3.30;;;3.10;;
15102;SDS011;7652;53.584;9.998;2024-02-14T11:25:34;3.10;;;2.90;;
15102;SDS011;7652;53.584;9.998;2024-02-14T11:28:59;3.60;;;3.30;;
15102;SDS011;7652;53.584;9.998;2024-02-14T11:32:22;4.33;;;3.97;;
15102;SDS011;7652;53.584;9.998;2024-02-14T11:35:45;3.60;;;3.30;;
15102;SDS011;7652;53.584;9.998;2024-02-14T11:39:09;4.00;;;3.70;;
15102;SDS011;7652;53.584;9.998;2024-02-14T11:42:33;4.17;;;3.80;;
15102;SDS011;7652;53.584;9.998;2024-02-14T11:45:55;3.77;;;3.47;;
15102;SDS011;7652;53.584;9.998;2024-02-14T11:49:17;3.93;;;3.63;;
15102;SDS011;7652;53.584;9.998;2024-02-14T11:52:39;4.40;;;3.97;;
15102;SDS011;7652;53.584;9.998;2024-02-14T11:56:01;4.07;;;3.77;;
15102;SDS011;7652;53.584;9.998;2024-02-14T11:59:24;4.60;;;4.07;;
15102;SDS011;7652;53.584;9.998;2024-02-14T12:02:46;3.90;;;3.60;;
15102;SDS011;7652;53.584;9.998;2024-02-14T12:06:09;4.40;;;4.00;;
15102;SDS011;7652;53.584;9.998;2024-02-14T12:09:31;4.63;;;4.23;;
15102;SDS011;7652;53.584;9.998;2024-02-14T12:12:53;4.40;;;4.00;;
15102;SDS011;7652;53.584;9.998;2024-02-14T12:16:16;4.60;;;4.20;;
15102;SDS011;7652;53.584;9.998;2024-02-14T12:19:41;4.60;;;4.20;;
15102;SDS011;7652;53.584;9.998;2024-02-14T12:23:03;4.80;;;4.40;;
15102;SDS011;7652;53.584;9.998;2024-02-14T12:26:25;4.80;;;4.37;;
15102;SDS011;7652;53.584;9.998;2024-02-14T12:29:47;4.50;;;3.93;;
15102;SDS011;7652;53.584;9.998;2024-02-14T12:33:11;5.30;;;4.80;;
15102;SDS011;7652;53.584;9.998;2024-02-14T12:36:34;4.67;;;4.37;;
15102;SDS011;7652;53.584;9.998;2024-02-14T12:39:56;4.43;;;4.07;;
15102;SDS011;7652;53.584;9.998;2024-02-14T12:43:17;5.27;;;4.73;;
15102;SDS011;7652;53.584;9.998;2024-02-14T12:46:39;4.83;;;4.43;;
15102;SDS011;7652;53.584;9.998;2024-02-14T12:50:02;6.07;;;5.00;;
15102;SDS011;7652;53.584;9.998;2024-02-14T12:53:27;6.00;;;5.17;;
15102;SDS011;7652;53.584;9.998;2024-02-14T12:56:49;7.57;;;5.63;;
15102;SDS011;7652;53.584;9.998;2024-02-14T13:00:10;6.17;;;4.80;;
15102;SDS011;7652;53.584;9.998;2024-02-14T13:03:33;6.60;;;5.90;;
15102;SDS011;7652;53.584;9.998;2024-02-14T13:06:57;7.57;;;6.30;;
15102;SDS011;7652;53.584;9.998;2024-02-14T13:10:19;6.57;;;5.97;;
15102;SDS011;7652;53.584;9.998;2024-02-14T13:13:40;6.90;;;6.27;;
15102;SDS011;7652;53.584;9.998;2024-02-14T13:17:03;7.70;;;6.90;;
15102;SDS011;7652;53.584;9.998;2024-02-14T13:20:25;7.37;;;6.67;;
15102;SDS011;7652;53.584;9.998;2024-02-14T13:23:49;7.00;;;6.30;;
15102;SDS011;7652;53.584;9.998;2024-02-14T13:27:10;8.33;;;6.80;;
15102;SDS011;7652;53.584;9.998;2024-02-14T13:30:32;7.83;;;7.03;;
15102;SDS011;7652;53.584;9.998;2024-02-14T13:33:55;6.97;;;5.83;;
15102;SDS011;7652;53.584;9.998;2024-02-14T13:37:18;7.10;;;5.90;;
15102;SDS011;7652;53.584;9.998;2024-02-14T13:40:42;6.40;;;5.70;;
15102;SDS011;7652;53.584;9.998;2024-02-14T13:44:03;8.03;;;5.97;;
15102;SDS011;7652;53.584;9.998;2024-02-14T13:47:25;7.03;;;6.17;;
15102;SDS011;7652;53.584;9.998;2024-02-14T13:50:46;6.47;;;5.80;;
15102;SDS011;7652;53.584;9.998;2024-02-14T13:54:09;7.13;;;6.40;;
15102;SDS011;7652;53.584;9.998;2024-02-14T13:57:33;7.87;;;6.20;;
15102;SDS011;7652;53.584;9.998;2024-02-14T14:00:56;8.13;;;6.90;;
15102;SDS011;7652;53.584;9.998;2024-02-14T14:04:19;8.63;;;6.43;;
15102;SDS011;7652;53.584;9.998;2024-02-14T14:07:41;7.10;;;6.40;;
15102;SDS011;7652;53.584;9.998;2024-02-14T14:11:17;8.73;;;6.77;;
15102;SDS011;7652;53.584;9.998;2024-02-14T14:14:40;8.87;;;5.87;;
15102;SDS011;7652;53.584;9.998;2024-02-14T14:18:01;7.30;;;6.60;;
15102;SDS011;7652;53.584;9.998;2024-02-14T14:21:23;6.57;;;5.93;;
15102;SDS011;7652;53.584;9.998;2024-02-14T14:24:45;6.30;;;5.67;;
15102;SDS011;7652;53.584;9.998;2024-02-14T14:28:07;6.87;;;6.07;;
15102;SDS011;7652;53.584;9.998;2024-02-14T14:31:30;6.13;;;5.53;;
15102;SDS011;7652;53.584;9.998;2024-02-14T14:34:53;6.00;;;5.40;;
15102;SDS011;7652;53.584;9.998;2024-02-14T14:38:15;7.87;;;5.67;;
15102;SDS011;7652;53.584;9.998;2024-02-14T14:41:37;6.93;;;5.47;;
15102;SDS011;7652;53.584;9.998;2024-02-14T14:44:59;5.83;;;5.30;;
15102;SDS011;7652;53.584;9.998;2024-02-14T14:48:22;6.13;;;5.63;;
15102;SDS011;7652;53.584;9.998;2024-02-14T14:51:43;6.03;;;5.43;;
15102;SDS011;7652;53.584;9.998;2024-02-14T14:55:05;6.63;;;5.53;;
15102;SDS011;7652;53.584;9.998;2024-02-14T14:58:27;6.67;;;6.07;;
15102;SDS011;7652;53.584;9.998;2024-02-14T15:01:53;7.67;;;6.77;;
15102;SDS011;7652;53.584;9.998;2024-02-14T15:05:16;7.30;;;6.60;;
15102;SDS011;7652;53.584;9.998;2024-02-14T15:08:39;6.67;;;6.07;;
15102;SDS011;7652;53.584;9.998;2024-02-14T15:12:04;6.63;;;6.03;;
15102;SDS011;7652;53.584;9.998;2024-02-14T15:15:26;7.43;;;5.83;;
15102;SDS011;7652;53.584;9.998;2024-02-14T15:18:47;6.60;;;5.90;;
15102;SDS011;7652;53.584;9.998;2024-02-14T15:22:11;5.90;;;5.30;;
15102;SDS011;7652;53.584;9.998;2024-02-14T15:25:34;6.10;;;5.50;;
15102;SDS011;7652;53.584;9.998;2024-02-14T15:28:56;6.37;;;5.77;;
15102;SDS011;7652;53.584;9.998;2024-02-14T15:32:38;5.67;;;5.07;;
15102;SDS011;7652;53.584;9.998;2024-02-14T15:36:18;6.57;;;5.60;;
15102;SDS011;7652;53.584;9.998;2024-02-14T15:39:41;5.80;;;5.30;;
15102;SDS011;7652;53.584;9.998;2024-02-14T15:43:03;6.47;;;5.37;;
15102;SDS011;7652;53.584;9.998;2024-02-14T15:46:24;6.50;;;5.37;;
15102;SDS011;7652;53.584;9.998;2024-02-14T15:49:46;6.57;;;5.33;;
15102;SDS011;7652;53.584;9.998;2024-02-14T15:53:07;6.60;;;6.00;;
15102;SDS011;7652;53.584;9.998;2024-02-14T15:56:30;6.73;;;5.87;;
15102;SDS011;7652;53.584;9.998;2024-02-14T15:59:52;6.87;;;6.10;;
15102;SDS011;7652;53.584;9.998;2024-02-14T16:03:14;7.37;;;5.80;;
15102;SDS011;7652;53.584;9.998;2024-02-14T16:06:36;6.70;;;6.00;;
15102;SDS011;7652;53.584;9.998;2024-02-14T16:09:57;6.90;;;5.93;;
15102;SDS011;7652;53.584;9.998;2024-02-14T16:13:21;6.90;;;6.20;;
15102;SDS011;7652;53.584;9.998;2024-02-14T16:16:42;7.37;;;6.57;;
15102;SDS011;7652;53.584;9.998;2024-02-14T16:20:04;7.93;;;6.27;;
15102;SDS011;7652;53.584;9.998;2024-02-14T16:23:28;9.37;;;6.47;;
15102;SDS011;7652;53.584;9.998;2024-02-14T16:26:49;8.27;;;7.30;;
15102;SDS011;7652;53.584;9.998;2024-02-14T16:30:13;8.53;;;7.00;;
15102;SDS011;7652;53.584;9.998;2024-02-14T16:33:35;8.90;;;8.03;;
15102;SDS011;7652;53.584;9.998;2024-02-14T16:36:57;8.87;;;7.97;;
15102;SDS011;7652;53.584;9.998;2024-02-14T16:40:19;8.30;;;7.50;;
15102;SDS011;7652;53.584;9.998;2024-02-14T16:43:41;9.90;;;8.20;;
15102;SDS011;7652;53.584;9.998;2024-02-14T16:47:04;9.90;;;8.13;;
15102;SDS011;7652;53.584;9.998;2024-02-14T16:50:26;9.07;;;8.17;;
15102;SDS011;7652;53.584;9.998;2024-02-14T16:53:49;10.43;;;8.43;;
15102;SDS011;7652;53.584;9.998;2024-02-14T16:57:10;9.50;;;8.60;;
15102;SDS011;7652;53.584;9.998;2024-02-14T17:00:37;9.53;;;8.57;;
15102;SDS011;7652;53.584;9.998;2024-02-14T17:04:00;9.53;;;8.63;;
15102;SDS011;7652;53.584;9.998;2024-02-14T17:07:25;9.30;;;7.87;;
15102;SDS011;7652;53.584;9.998;2024-02-14T17:10:47;8.77;;;7.87;;
15102;SDS011;7652;53.584;9.998;2024-02-14T17:14:09;10.13;;;8.57;;
15102;SDS011;7652;53.584;9.998;2024-02-14T17:17:31;11.27;;;9.20;;
15102;SDS011;7652;53.584;9.998;2024-02-14T17:20:54;11.93;;;9.33;;
15102;SDS011;7652;53.584;9.998;2024-02-14T17:24:17;9.07;;;8.20;;
15102;SDS011;7652;53.584;9.998;2024-02-14T17:27:39;9.00;;;8.10;;
15102;SDS011;7652;53.584;9.998;2024-02-14T17:31:00;7.87;;;7.07;;
15102;SDS011;7652;53.584;9.998;2024-02-14T17:34:22;8.70;;;7.07;;
15102;SDS011;7652;53.584;9.998;2024-02-14T17:37:47;8.77;;;6.93;;
15102;SDS011;7652;53.584;9.998;2024-02-14T17:41:08;8.30;;;7.23;;
15102;SDS011;7652;53.584;9.998;2024-02-14T17:44:30;8.23;;;7.13;;
15102;SDS011;7652;53.584;9.998;2024-02-14T17:47:52;9.27;;;7.00;;
15102;SDS011;7652;53.584;9.998;2024-02-14T17:51:14;8.07;;;7.27;;
15102;SDS011;7652;53.584;9.998;2024-02-14T17:54:37;7.77;;;6.97;;
15102;SDS011;7652;53.584;9.998;2024-02-14T17:57:59;8.20;;;7.50;;
15102;SDS011;7652;53.584;9.998;2024-02-14T18:01:22;8.80;;;8.03;;
15102;SDS011;7652;53.584;9.998;2024-02-14T18:04:43;8.67;;;7.87;;
15102;SDS011;7652;53.584;9.998;2024-02-14T18:08:05;7.90;;;7.20;;
15102;SDS011;7652;53.584;9.998;2024-02-14T18:11:28;9.63;;;8.30;;
15102;SDS011;7652;53.584;9.998;2024-02-14T18:14:49;9.40;;;8.33;;
15102;SDS011;7652;53.584;9.998;2024-02-14T18:18:11;8.90;;;8.00;;
15102;SDS011;7652;53.584;9.998;2024-02-14T18:21:33;10.23;;;7.67;;
15102;SDS011;7652;53.584;9.998;2024-02-14T18:24:55;7.90;;;7.20;;
15102;SDS011;7652;53.584;9.998;2024-02-14T18:28:20;7.90;;;7.10;;
15102;SDS011;7652;53.584;9.998;2024-02-14T18:31:41;8.47;;;7.67;;
15102;SDS011;7652;53.584;9.998;2024-02-14T18:35:03;8.03;;;7.23;;
15102;SDS011;7652;53.584;9.998;2024-02-14T18:38:25;7.90;;;7.20;;
15102;SDS011;7652;53.584;9.998;2024-02-14T18:41:51;8.27;;;7.47;;
15102;SDS011;7652;53.584;9.998;2024-02-14T18:45:14;8.97;;;8.07;;
15102;SDS011;7652;53.584;9.998;2024-02-14T18:48:36;9.70;;;8.70;;
15102;SDS011;7652;53.584;9.998;2024-02-14T18:52:00;9.50;;;8.70;;
15102;SDS011;7652;53.584;9.998;2024-02-14T18:55:21;12.50;;;9.37;;
15102;SDS011;7652;53.584;9.998;2024-02-14T18:58:43;10.20;;;9.20;;
15102;SDS011;7652;53.584;9.998;2024-02-14T19:02:06;10.93;;;9.83;;
15102;SDS011;7652;53.584;9.998;2024-02-14T19:05:28;10.10;;;9.10;;
15102;SDS011;7652;53.584;9.998;2024-02-14T19:08:50;10.43;;;9.43;;
15102;SDS011;7652;53.584;9.998;2024-02-14T19:12:12;10.97;;;9.87;;
15102;SDS011;7652;53.584;9.998;2024-02-14T19:15:34;10.87;;;9.83;;
15102;SDS011;7652;53.584;9.998;2024-02-14T19:18:57;11.40;;;9.50;;
15102;SDS011;7652;53.584;9.998;2024-02-14T19:22:19;11.63;;;10.43;;
15102;SDS011;7652;53.584;9.998;2024-02-14T19:25:40;11.27;;;10.13;;
15102;SDS011;7652;53.584;9.998;2024-02-14T19:29:02;13.57;;;11.07;;
15102;SDS011;7652;53.584;9.998;2024-02-14T19:32:25;13.47;;;11.33;;
15102;SDS011;7652;53.584;9.998;2024-02-14T19:35:47;12.93;;;11.63;;
15102;SDS011;7652;53.584;9.998;2024-02-14T19:39:13;13.73;;;11.57;;
15102;SDS011;7652;53.584;9.998;2024-02-14T19:42:36;13.47;;;12.13;;
15102;SDS011;7652;53.584;9.998;2024-02-14T19:45:57;13.70;;;12.20;;
15102;SDS011;7652;53.584;9.998;2024-02-14T19:49:19;13.43;;;12.03;;
15102;SDS011;7652;53.584;9.998;2024-02-14T19:52:45;13.83;;;12.33;;
15102;SDS011;7652;53.584;9.998;2024-02-14T19:56:07;14.20;;;12.70;;
15102;SDS011;7652;53.584;9.998;2024-02-14T19:59:28;13.77;;;12.30;;
15102;SDS011;7652;53.584;9.998;2024-02-14T20:02:50;14.03;;;12.50;;
15102;SDS011;7652;53.584;9.998;2024-02-14T20:06:12;14.10;;;12.70;;
15102;SDS011;7652;53.584;9.998;2024-02-14T20:09:35;15.50;;;12.93;;
15102;SDS011;7652;53.584;9.998;2024-02-14T20:12:57;16.83;;;13.53;;
15102;SDS011;7652;53.584;9.998;2024-02-14T20:16:19;15.40;;;12.83;;
15102;SDS011;7652;53.584;9.998;2024-02-14T20:19:41;14.80;;;13.30;;
15102;SDS011;7652;53.584;9.998;2024-02-14T20:23:03;15.50;;;13.20;;
15102;SDS011;7652;53.584;9.998;2024-02-14T20:26:32;15.37;;;13.30;;
15102;SDS011;7652;53.584;9.998;2024-02-14T20:29:54;17.63;;;14.37;;
15102;SDS011;7652;53.584;9.998;2024-02-14T20:33:16;17.30;;;13.97;;